This is the latest recevied weather packets stored in our database for station/object KF4PPJ. If no packets are shown the sender has not sent any weather packets the latest 10 day(s).
| Time | Temp. | Humidity | Pressure | Rain* | Wind** | Luminosity | Snow |
|---|---|---|---|---|---|---|---|
| 1777755532 | 22.22° C | 55% | 1017.7 hPa | 0 mm | - | 638 W/m² | - |
| 1777754925 | 22.78° C | 53% | 1017.9 hPa | 0 mm | - | 672 W/m² | - |
| 1777754319 | 22.22° C | 56% | 1018 hPa | 0 mm | - | 691 W/m² | - |
| 1777753713 | 21.67° C | 56% | 1017.8 hPa | 0 mm | - | 665 W/m² | - |
| 1777752804 | 21.67° C | 57% | 1018.3 hPa | 0 mm | - | 600 W/m² | - |
| 1777751895 | 20.56° C | 60% | 1018.2 hPa | 0 mm | - | 727 W/m² | - |
| 1777750378 | 19.44° C | 64% | 1018.7 hPa | 0 mm | - | 691 W/m² | - |
| 1777750077 | 17.78° C | 69% | 1018.6 hPa | 0 mm | - | 675 W/m² | - |
| 1777749473 | 16.67° C | 72% | 1018.9 hPa | 0 mm | - | 711 W/m² | - |
| 1777743716 | 15.56° C | 72% | 1019.6 hPa | 0 mm | - | 195 W/m² | - |
| 1777742809 | 15.56° C | 72% | 1019.6 hPa | 0 mm | - | 357 W/m² | - |
| 1777741898 | 14.44° C | 78% | 1019.4 hPa | 0 mm | - | 262 W/m² | - |
| 1777741595 | 13.89° C | 80% | 1019.6 hPa | 0 mm | - | 399 W/m² | - |
| 1777741286 | 13.33° C | 81% | 1019.7 hPa | 0 mm | - | 288 W/m² | - |
| 1777740982 | 13.33° C | 82% | 1019.5 hPa | 0 mm | - | 267 W/m² | - |
| 1777740679 | 12.78° C | 85% | 1019.8 hPa | 0 mm | - | 312 W/m² | - |
| 1777739769 | 12.22° C | 85% | 1019.9 hPa | 0 mm | - | 186 W/m² | - |
| 1777739162 | 11.67° C | 87% | 1020.1 hPa | 0 mm | - | 198 W/m² | - |
| 1777738859 | 11.67° C | 88% | 1019.9 hPa | 0 mm | - | 154 W/m² | - |
| 1777738556 | 11.67° C | 88% | 1019.8 hPa | 0 mm | - | 146 W/m² | - |
| 1777738253 | 11.67° C | 89% | 1019.9 hPa | 0 mm | - | 133 W/m² | - |
| 1777737951 | 11.11° C | 90% | 1020 hPa | 0 mm | - | 140 W/m² | - |
| 1777737650 | 11.11° C | 90% | 1020.2 hPa | 0 mm | - | 127 W/m² | - |
| 1777737348 | 11.11° C | 89% | 1020.1 hPa | 0 mm | - | 117 W/m² | - |
| 1777737044 | 11.11° C | 89% | 1020.1 hPa | 0 mm | - | 112 W/m² | - |
* Rain latest hour (hover to see other rain measurements)
** Current wind speed in m/s (hover to see current wind gust speed)